Terminal Aerodrome Forecast
Issued by NWS Mt. Holly, NJ

Home | Current Version | Previous Version | Text Only | Print | Product List | Glossary On
Versions: 1 2 3 4 5 6 7 8 9 10 11 12 13 14 15 16 17
000
FTUS41 KPHI 050200 AAB
TAFILG
TAF AMD
KILG 050200Z 0502/0524 25004KT P6SM SCT040 BKN070
     FM050600 29004KT P6SM SCT250
     FM051300 30010KT P6SM SCT250
     FM051600 29010G18KT P6SM SCT050
     FM052300 30008KT P6SM SCT250=

USA.gov is the U.S. government's official web portal to all federal, state and local government web resources and services.